Time;durP1;ratioP1;P1;durP2;ratioP2;P2;SDS_P1;SDS_P2;PMS_P1;PMS_P2;Temp;Humidity;BMP_temperature;BMP_pressure;BME280_temperature;BME280_humidity;BME280_pressure;Samples;Min_cycle;Max_cycle;Signal;HPM_P1;HPM_P2
2023/09/04 00:00:33;;;;;;;11.67;6.63;;;14.30;99.90;;;;;;4843907;29;20197;-81
2023/09/04 00:02:58;;;;;;;11.43;7.27;;;14.20;99.90;;;;;;4843947;29;20769;-80
2023/09/04 00:05:24;;;;;;;8.70;6.83;;;14.30;99.90;;;;;;4844003;29;20214;-80
2023/09/04 00:07:50;;;;;;;11.00;6.33;;;14.20;99.90;;;;;;4843050;29;20189;-77
2023/09/04 00:10:15;;;;;;;7.57;6.97;;;14.20;99.90;;;;;;4844637;29;20185;-78
2023/09/04 00:12:41;;;;;;;9.33;7.20;;;14.20;99.90;;;;;;4843912;29;20768;-78
2023/09/04 00:15:07;;;;;;;7.33;6.63;;;14.10;99.90;;;;;;4843088;29;20189;-78
2023/09/04 00:17:33;;;;;;;6.57;5.97;;;14.10;99.90;;;;;;4844192;29;20669;-78
2023/09/04 00:19:58;;;;;;;7.93;6.57;;;14.10;99.90;;;;;;4844032;29;20424;-79
2023/09/04 00:22:27;;;;;;;9.97;6.60;;;14.00;99.90;;;;;;4842546;29;20924;-78
2023/09/04 00:24:53;;;;;;;7.17;6.10;;;14.00;99.90;;;;;;4843750;29;20209;-79
2023/09/04 00:27:19;;;;;;;8.27;6.80;;;13.90;99.90;;;;;;4843463;29;20446;-80
2023/09/04 00:29:45;;;;;;;7.47;6.43;;;13.90;99.90;;;;;;4843017;29;20422;-79
2023/09/04 00:32:11;;;;;;;8.83;7.70;;;13.90;99.90;;;;;;4843927;29;20504;-79
2023/09/04 00:34:36;;;;;;;6.73;6.13;;;13.90;99.90;;;;;;4844079;29;20193;-79
2023/09/04 00:37:02;;;;;;;8.03;6.73;;;13.90;99.90;;;;;;4841964;29;20192;-79
2023/09/04 00:39:28;;;;;;;7.77;6.97;;;13.80;99.90;;;;;;4843914;29;20662;-79
2023/09/04 00:41:53;;;;;;;7.60;6.57;;;13.80;99.90;;;;;;4843824;29;20466;-79
2023/09/04 00:44:19;;;;;;;7.00;6.40;;;13.80;99.90;;;;;;4843212;29;20192;-79
2023/09/04 00:46:45;;;;;;;9.10;7.70;;;13.80;99.90;;;;;;4844119;29;20181;-79
2023/09/04 00:49:12;;;;;;;7.93;6.83;;;13.80;99.90;;;;;;4844118;29;20185;-79
2023/09/04 00:51:39;;;;;;;8.70;7.63;;;13.70;99.90;;;;;;4841591;29;20243;-80
2023/09/04 00:54:07;;;;;;;7.97;7.23;;;13.80;99.90;;;;;;4843791;29;20429;-80
2023/09/04 00:56:33;;;;;;;8.23;6.67;;;13.80;99.90;;;;;;4849819;29;20432;-81
2023/09/04 00:58:59;;;;;;;8.33;7.43;;;13.80;99.90;;;;;;4859792;29;20879;-78
2023/09/04 01:01:26;;;;;;;10.07;7.67;;;13.70;99.90;;;;;;4861395;29;20486;-78
2023/09/04 01:03:51;;;;;;;10.87;8.00;;;13.80;99.90;;;;;;4863395;29;20184;-78
2023/09/04 01:06:17;;;;;;;11.63;8.40;;;13.90;99.90;;;;;;4865787;29;20409;-78
2023/09/04 01:08:43;;;;;;;9.93;7.93;;;14.00;99.90;;;;;;4866202;29;20518;-78
2023/09/04 01:11:18;;;;;;;10.37;9.40;;;14.10;99.90;;;;;;4866043;29;20320;-77
2023/09/04 01:13:49;;;;;;;10.20;8.90;;;14.00;99.90;;;;;;4866230;29;20187;-78
2023/09/04 01:16:16;;;;;;;11.03;9.70;;;14.00;99.90;;;;;;4865968;29;20412;-77
2023/09/04 01:18:42;;;;;;;16.17;11.33;;;14.10;99.90;;;;;;4866413;29;20417;-78
2023/09/04 01:21:07;;;;;;;10.47;9.03;;;14.10;99.90;;;;;;4865939;29;20392;-78
2023/09/04 01:23:33;;;;;;;10.53;9.40;;;14.10;99.90;;;;;;4866266;29;20196;-77
2023/09/04 01:26:13;;;;;;;11.97;10.50;;;14.10;99.90;;;;;;4866006;29;20185;-78
2023/09/04 01:29:09;;;;;;;11.80;10.37;;;14.10;99.90;;;;;;4866245;29;20295;-77
2023/09/04 01:31:59;;;;;;;10.80;9.50;;;14.10;99.90;;;;;;4866441;29;20464;-77
2023/09/04 01:34:29;;;;;;;15.70;9.00;;;14.00;99.90;;;;;;4866412;29;20693;-77
2023/09/04 01:36:59;;;;;;;10.50;9.40;;;14.00;99.90;;;;;;4866197;29;20479;-77
2023/09/04 01:39:26;;;;;;;13.37;9.37;;;14.00;99.90;;;;;;4864452;29;20415;-77
2023/09/04 01:41:52;;;;;;;10.33;8.93;;;14.10;99.90;;;;;;4865624;29;20453;-77
2023/09/04 01:44:18;;;;;;;13.40;10.53;;;14.10;99.90;;;;;;4866331;29;20409;-77
2023/09/04 01:46:44;;;;;;;13.10;11.80;;;14.10;99.90;;;;;;4865488;29;20267;-78
2023/09/04 01:49:10;;;;;;;12.90;11.17;;;14.10;99.90;;;;;;4865417;29;20460;-77
2023/09/04 01:51:35;;;;;;;13.10;11.00;;;14.10;99.90;;;;;;4865424;29;20645;-77
2023/09/04 01:54:01;;;;;;;10.87;9.40;;;14.00;99.90;;;;;;4865401;29;20195;-77
2023/09/04 01:56:26;;;;;;;11.73;9.50;;;13.90;99.90;;;;;;4865354;29;20647;-77
2023/09/04 01:58:52;;;;;;;13.37;10.50;;;13.90;99.90;;;;;;4865971;29;20184;-77
2023/09/04 02:01:18;;;;;;;13.37;10.00;;;13.90;99.90;;;;;;4865268;29;20185;-77
2023/09/04 02:03:44;;;;;;;13.17;9.67;;;13.90;99.90;;;;;;4864983;29;20199;-81
2023/09/04 02:06:10;;;;;;;11.50;10.23;;;13.80;99.90;;;;;;4865312;29;20268;-77
2023/09/04 02:08:36;;;;;;;11.87;10.67;;;13.80;99.90;;;;;;4865432;29;20405;-77
2023/09/04 02:11:01;;;;;;;12.03;10.37;;;13.60;99.90;;;;;;4864882;29;20413;-77
2023/09/04 02:13:27;;;;;;;11.90;9.90;;;13.50;99.90;;;;;;4865234;29;20561;-77
2023/09/04 02:15:53;;;;;;;11.17;9.57;;;13.50;99.90;;;;;;4864793;29;20184;-77
2023/09/04 02:18:18;;;;;;;11.63;10.27;;;13.40;99.90;;;;;;4865041;29;20196;-76
2023/09/04 02:20:46;;;;;;;13.23;9.60;;;13.30;99.90;;;;;;4865477;29;20271;-77
2023/09/04 02:23:12;;;;;;;12.87;10.70;;;13.20;99.90;;;;;;4865091;29;20213;-77
2023/09/04 02:25:38;;;;;;;13.93;10.07;;;13.10;99.90;;;;;;4865555;29;20421;-77
2023/09/04 02:28:03;;;;;;;10.63;9.50;;;13.10;99.90;;;;;;4864912;29;20236;-77
2023/09/04 02:30:29;;;;;;;17.53;9.37;;;13.00;99.90;;;;;;4865380;29;20181;-77
2023/09/04 02:32:58;;;;;;;14.50;9.30;;;12.90;99.90;;;;;;4865590;29;20227;-77
2023/09/04 02:35:25;;;;;;;11.20;10.10;;;12.90;99.90;;;;;;4865549;29;20183;-77
2023/09/04 02:37:51;;;;;;;12.27;9.83;;;12.90;99.90;;;;;;4864849;29;20865;-78
2023/09/04 02:40:16;;;;;;;12.10;10.03;;;13.00;99.90;;;;;;4864990;29;20444;-77
2023/09/04 02:42:42;;;;;;;11.17;10.07;;;12.90;99.90;;;;;;4864843;29;20180;-79
2023/09/04 02:45:08;;;;;;;11.70;10.37;;;12.90;99.90;;;;;;4864890;29;20212;-76
2023/09/04 02:47:36;;;;;;;13.87;10.17;;;12.90;99.90;;;;;;4865049;29;20226;-76
2023/09/04 02:50:02;;;;;;;12.60;9.70;;;12.90;99.90;;;;;;4865318;29;20400;-76
2023/09/04 02:52:29;;;;;;;11.60;10.20;;;12.80;99.90;;;;;;4865392;29;20476;-75
2023/09/04 02:54:56;;;;;;;12.70;11.33;;;12.80;99.90;;;;;;4863872;29;20256;-75
2023/09/04 02:57:22;;;;;;;17.50;11.77;;;12.80;99.90;;;;;;4865488;29;20581;-76
2023/09/04 02:59:48;;;;;;;13.43;10.57;;;12.90;99.90;;;;;;4865232;29;20448;-76
2023/09/04 03:02:14;;;;;;;14.30;10.67;;;12.80;99.90;;;;;;4865227;29;20252;-75
2023/09/04 03:04:40;;;;;;;17.33;10.60;;;12.70;99.90;;;;;;4865249;29;20248;-75
2023/09/04 03:07:06;;;;;;;10.90;9.33;;;12.70;99.90;;;;;;4864689;29;20177;-76
2023/09/04 03:09:32;;;;;;;11.90;9.60;;;12.60;99.90;;;;;;4865063;29;20436;-75
2023/09/04 03:11:58;;;;;;;13.70;9.77;;;12.60;99.90;;;;;;4865112;29;20215;-76
2023/09/04 03:14:24;;;;;;;15.93;10.77;;;12.60;99.90;;;;;;4864947;29;20188;-75
2023/09/04 03:16:49;;;;;;;12.43;9.23;;;12.50;99.90;;;;;;4864815;29;20432;-75
2023/09/04 03:19:15;;;;;;;12.97;9.53;;;12.40;99.90;;;;;;4864854;29;20180;-75
2023/09/04 03:21:40;;;;;;;12.90;9.33;;;12.40;99.90;;;;;;4865182;29;20191;-75
2023/09/04 03:24:06;;;;;;;11.23;10.13;;;12.40;99.90;;;;;;4864860;29;20208;-75
2023/09/04 03:26:32;;;;;;;14.53;9.80;;;12.40;99.90;;;;;;4865528;29;20172;-75
2023/09/04 03:28:58;;;;;;;19.40;11.30;;;12.30;99.90;;;;;;4864441;29;20977;-75
2023/09/04 03:31:23;;;;;;;15.40;10.00;;;12.40;99.90;;;;;;4864880;29;20541;-75
2023/09/04 03:33:49;;;;;;;11.90;9.60;;;12.30;99.90;;;;;;4864740;29;20236;-80
2023/09/04 03:36:14;;;;;;;15.67;11.67;;;12.30;99.90;;;;;;4864879;29;20219;-76
2023/09/04 03:38:40;;;;;;;17.77;11.73;;;12.30;99.90;;;;;;4865156;29;20270;-75
2023/09/04 03:41:05;;;;;;;21.33;11.00;;;12.30;99.90;;;;;;4864384;29;20187;-75
2023/09/04 03:43:33;;;;;;;13.63;10.63;;;12.20;99.90;;;;;;4864805;29;20543;-75
2023/09/04 03:45:58;;;;;;;13.33;10.17;;;12.20;99.90;;;;;;4863931;29;20181;-75
2023/09/04 03:48:24;;;;;;;12.67;9.13;;;12.20;99.90;;;;;;4864683;29;20413;-75
2023/09/04 03:50:49;;;;;;;14.73;11.90;;;12.20;99.90;;;;;;4864327;29;20180;-82
2023/09/04 03:53:15;;;;;;;15.30;12.50;;;12.20;99.90;;;;;;4864637;29;20260;-75
2023/09/04 03:55:40;;;;;;;14.80;12.50;;;12.30;99.90;;;;;;4864193;29;20271;-75
2023/09/04 03:58:06;;;;;;;14.00;12.17;;;12.30;99.90;;;;;;4864057;29;20533;-75
2023/09/04 04:00:32;;;;;;;18.20;11.40;;;12.30;99.90;;;;;;4864674;29;20180;-75
2023/09/04 04:02:57;;;;;;;14.47;11.20;;;12.20;99.90;;;;;;4864336;29;20210;-75
2023/09/04 04:05:23;;;;;;;11.07;9.90;;;12.20;99.90;;;;;;4864275;29;20220;-75
2023/09/04 04:07:49;;;;;;;16.70;12.80;;;12.20;99.90;;;;;;4864211;29;20211;-75
2023/09/04 04:10:15;;;;;;;22.80;12.87;;;12.20;99.90;;;;;;4864159;29;20580;-76
2023/09/04 04:12:41;;;;;;;19.83;13.47;;;12.30;99.90;;;;;;4864270;29;20469;-75
2023/09/04 04:15:08;;;;;;;15.40;11.67;;;12.20;99.90;;;;;;4864081;29;20413;-76
2023/09/04 04:17:37;;;;;;;23.40;12.37;;;12.20;99.90;;;;;;4864221;29;20640;-76
2023/09/04 04:20:08;;;;;;;13.40;11.03;;;12.10;99.90;;;;;;4863739;29;20906;-75
2023/09/04 04:22:34;;;;;;;12.70;10.90;;;12.00;99.90;;;;;;4864464;29;20406;-76
2023/09/04 04:25:00;;;;;;;11.80;10.63;;;12.00;99.90;;;;;;4863668;29;20794;-76
2023/09/04 04:27:25;;;;;;;15.37;11.00;;;12.00;99.90;;;;;;4864108;29;20312;-75
2023/09/04 04:29:54;;;;;;;14.00;11.50;;;12.00;99.90;;;;;;4863644;29;20191;-76
2023/09/04 04:32:20;;;;;;;12.50;10.70;;;12.10;99.90;;;;;;4863971;29;20733;-76
2023/09/04 04:34:45;;;;;;;12.50;11.23;;;12.20;99.90;;;;;;4864173;29;20453;-75
2023/09/04 04:37:12;;;;;;;14.20;11.77;;;12.30;99.90;;;;;;4863567;29;20177;-76
2023/09/04 04:39:37;;;;;;;12.27;10.97;;;12.40;99.90;;;;;;4869427;29;20180;-75
2023/09/04 04:42:03;;;;;;;16.57;11.70;;;12.40;99.90;;;;;;4870427;29;20442;-75
2023/09/04 04:44:29;;;;;;;14.20;11.90;;;12.50;99.90;;;;;;4870429;29;20180;-75
2023/09/04 04:46:54;;;;;;;14.33;11.60;;;12.60;99.90;;;;;;4870100;29;20184;-76
2023/09/04 04:49:21;;;;;;;14.13;11.93;;;12.70;99.90;;;;;;4870485;29;20211;-76
2023/09/04 04:51:49;;;;;;;15.17;12.33;;;12.70;99.90;;;;;;4870180;29;20226;-75
2023/09/04 04:54:15;;;;;;;14.17;11.93;;;12.70;99.90;;;;;;4868596;29;20455;-75
2023/09/04 04:56:41;;;;;;;13.43;11.80;;;12.80;99.90;;;;;;4869580;29;20767;-75
2023/09/04 04:59:08;;;;;;;16.23;12.37;;;12.90;99.90;;;;;;4869605;29;20641;-76
2023/09/04 05:01:34;;;;;;;17.70;11.73;;;12.90;99.90;;;;;;4869437;29;20761;-75
2023/09/04 05:03:59;;;;;;;14.90;13.00;;;12.90;99.90;;;;;;4869838;29;20449;-76
2023/09/04 05:06:25;;;;;;;15.43;12.93;;;13.00;99.90;;;;;;4869887;29;20416;-75
2023/09/04 05:08:51;;;;;;;23.60;12.97;;;13.00;99.90;;;;;;4870087;29;20181;-75
2023/09/04 05:11:17;;;;;;;25.90;13.47;;;13.00;99.90;;;;;;4869474;29;20188;-76
2023/09/04 05:13:42;;;;;;;17.70;14.30;;;13.00;99.90;;;;;;4869711;29;20924;-77
2023/09/04 05:16:08;;;;;;;17.60;13.53;;;13.00;99.90;;;;;;4869212;29;20188;-77
2023/09/04 05:18:34;;;;;;;20.00;15.57;;;13.00;99.90;;;;;;4869329;29;20195;-77
2023/09/04 05:20:59;;;;;;;24.23;13.83;;;13.00;99.90;;;;;;4869072;29;20512;-77
2023/09/04 05:23:25;;;;;;;16.40;13.13;;;13.00;99.90;;;;;;4869510;29;20621;-77
2023/09/04 05:25:52;;;;;;;15.70;13.63;;;13.00;99.90;;;;;;4868986;29;20268;-77
2023/09/04 05:28:18;;;;;;;17.60;14.47;;;13.00;99.90;;;;;;4868509;29;20508;-77
2023/09/04 05:30:44;;;;;;;20.07;15.20;;;13.00;99.90;;;;;;4869356;29;20413;-77
2023/09/04 05:33:10;;;;;;;19.87;14.80;;;13.10;99.90;;;;;;4868908;29;20964;-77
2023/09/04 05:35:35;;;;;;;19.93;14.90;;;13.30;99.90;;;;;;4869016;29;20548;-76
2023/09/04 05:38:01;;;;;;;24.33;15.13;;;13.30;99.90;;;;;;4869547;29;20279;-76
2023/09/04 05:40:27;;;;;;;19.13;15.50;;;13.40;99.90;;;;;;4869425;29;20272;-76
2023/09/04 05:42:53;;;;;;;19.00;14.77;;;13.50;99.90;;;;;;4869280;29;20784;-76
2023/09/04 05:45:21;;;;;;;22.47;16.73;;;13.60;99.90;;;;;;4868723;29;20206;-76
2023/09/04 05:47:47;;;;;;;21.17;16.07;;;13.60;99.90;;;;;;4869172;29;20176;-76
2023/09/04 05:50:13;;;;;;;22.20;16.57;;;13.70;99.90;;;;;;4866929;29;20409;-76
2023/09/04 05:52:39;;;;;;;19.73;14.80;;;13.70;99.90;;;;;;4866420;29;20264;-76
2023/09/04 05:55:05;;;;;;;23.07;16.20;;;13.80;99.90;;;;;;4866659;29;20395;-76
2023/09/04 05:57:31;;;;;;;19.40;15.60;;;13.90;99.90;;;;;;4866426;29;20188;-75
2023/09/04 05:59:56;;;;;;;18.60;15.30;;;13.90;99.90;;;;;;4866666;29;20503;-76
2023/09/04 06:02:22;;;;;;;24.83;15.53;;;14.00;99.90;;;;;;4866450;29;20188;-75
2023/09/04 06:04:48;;;;;;;18.10;14.67;;;14.00;99.90;;;;;;4866434;29;20192;-75
2023/09/04 06:07:15;;;;;;;16.53;14.33;;;14.00;99.90;;;;;;4866358;29;20204;-76
2023/09/04 06:09:42;;;;;;;15.40;13.33;;;14.10;99.90;;;;;;4866627;29;20263;-76
2023/09/04 06:12:11;;;;;;;14.53;12.57;;;14.10;99.90;;;;;;4865590;29;20840;-76
2023/09/04 06:14:39;;;;;;;13.00;11.80;;;14.20;99.90;;;;;;4865524;29;20420;-76
2023/09/04 06:17:06;;;;;;;15.83;12.07;;;14.20;99.90;;;;;;4865940;29;20820;-75
2023/09/04 06:19:31;;;;;;;14.07;12.60;;;14.20;99.90;;;;;;4866215;29;20940;-75
2023/09/04 06:21:58;;;;;;;12.93;11.10;;;14.30;99.90;;;;;;4865712;29;20391;-75
2023/09/04 06:24:23;;;;;;;12.63;10.13;;;14.30;99.90;;;;;;4865665;29;20215;-75
2023/09/04 06:26:50;;;;;;;12.33;10.40;;;14.30;99.90;;;;;;4865970;29;20413;-76
2023/09/04 06:29:18;;;;;;;12.43;11.13;;;14.30;99.90;;;;;;4865286;29;20323;-76
2023/09/04 06:31:44;;;;;;;12.70;10.43;;;14.40;99.90;;;;;;4864741;29;20472;-76
2023/09/04 06:34:11;;;;;;;10.60;9.60;;;14.40;99.90;;;;;;4865184;29;20417;-76
2023/09/04 06:36:36;;;;;;;10.93;9.83;;;14.50;99.90;;;;;;4864068;29;20490;-76
2023/09/04 06:39:03;;;;;;;10.47;9.47;;;14.50;99.90;;;;;;4864751;29;20457;-77
2023/09/04 06:41:29;;;;;;;10.63;9.63;;;14.50;99.90;;;;;;4865667;29;20191;-76
2023/09/04 06:43:54;;;;;;;12.63;9.60;;;14.70;99.90;;;;;;4863867;29;20421;-82
2023/09/04 06:46:20;;;;;;;9.90;8.90;;;14.70;99.90;;;;;;4863778;29;20849;-81
2023/09/04 06:48:46;;;;;;;11.03;9.47;;;14.80;99.90;;;;;;4864038;29;20181;-81
2023/09/04 06:51:11;;;;;;;10.60;8.77;;;14.80;99.90;;;;;;4862981;29;20198;-80
2023/09/04 06:53:37;;;;;;;8.67;7.77;;;14.90;99.90;;;;;;4864947;29;20336;-81
2023/09/04 06:56:02;;;;;;;10.40;8.40;;;15.00;99.90;;;;;;4863800;29;20196;-82
2023/09/04 06:58:28;;;;;;;8.57;7.63;;;15.00;99.90;;;;;;4863205;29;20649;-82
2023/09/04 07:00:54;;;;;;;12.30;7.87;;;15.10;99.90;;;;;;4863651;29;20184;-81
2023/09/04 07:03:21;;;;;;;9.40;7.60;;;15.30;99.90;;;;;;4863286;29;20417;-81
2023/09/04 07:05:47;;;;;;;7.50;6.70;;;15.30;99.90;;;;;;4863412;29;20405;-81
2023/09/04 07:08:13;;;;;;;8.03;6.97;;;15.40;99.90;;;;;;4863077;29;20388;-82
2023/09/04 07:10:38;;;;;;;8.93;7.10;;;15.40;99.90;;;;;;4863092;29;20192;-82
2023/09/04 07:13:04;;;;;;;8.67;6.30;;;15.50;99.90;;;;;;4862939;29;20208;-82
2023/09/04 07:15:30;;;;;;;7.43;6.70;;;15.60;99.90;;;;;;4863282;29;20586;-82
2023/09/04 07:17:59;;;;;;;11.70;7.90;;;15.60;99.90;;;;;;4863357;29;20216;-82
2023/09/04 07:20:25;;;;;;;9.77;7.50;;;15.80;99.90;;;;;;4862969;29;20178;-82
2023/09/04 07:22:50;;;;;;;9.27;7.83;;;15.80;99.90;;;;;;4863270;29;20421;-82
2023/09/04 07:25:16;;;;;;;11.23;7.27;;;15.90;99.90;;;;;;4861554;29;20418;-82
2023/09/04 07:27:42;;;;;;;7.87;5.90;;;16.00;99.90;;;;;;4862623;29;20228;-81
2023/09/04 07:30:08;;;;;;;8.33;6.30;;;16.10;99.90;;;;;;4862879;29;20542;-82
2023/09/04 07:32:34;;;;;;;9.37;6.20;;;16.20;99.90;;;;;;4862922;29;20215;-82
2023/09/04 07:34:59;;;;;;;8.43;6.57;;;16.30;99.90;;;;;;4862855;29;20417;-82
2023/09/04 07:37:28;;;;;;;6.50;5.87;;;16.40;99.90;;;;;;4862617;29;20571;-82
2023/09/04 07:39:54;;;;;;;12.43;5.60;;;16.50;99.90;;;;;;4861749;29;20255;-82
2023/09/04 07:42:21;;;;;;;6.07;5.27;;;16.60;99.90;;;;;;4862212;29;20475;-82
2023/09/04 07:44:47;;;;;;;5.60;4.60;;;16.60;99.90;;;;;;4862981;29;20392;-82
2023/09/04 07:47:12;;;;;;;9.27;4.93;;;16.70;99.90;;;;;;4862595;29;20406;-83
2023/09/04 07:49:38;;;;;;;5.50;5.00;;;16.80;99.90;;;;;;4862893;29;20231;-83
2023/09/04 07:52:04;;;;;;;5.73;4.97;;;16.90;99.90;;;;;;4862566;29;20219;-82
2023/09/04 07:54:29;;;;;;;6.67;5.70;;;17.10;99.90;;;;;;4862446;29;20184;-82
2023/09/04 07:56:55;;;;;;;8.00;4.53;;;17.20;99.90;;;;;;4862540;29;20180;-82
2023/09/04 07:59:20;;;;;;;10.27;5.57;;;17.20;99.90;;;;;;4862495;29;20251;-82
2023/09/04 08:01:46;;;;;;;8.17;5.23;;;17.30;99.90;;;;;;4863931;29;20223;-82
2023/09/04 08:04:13;;;;;;;8.40;4.27;;;17.40;99.90;;;;;;4862321;29;20193;-84
2023/09/04 08:06:39;;;;;;;5.60;5.10;;;17.50;99.90;;;;;;4862699;29;20188;-83
2023/09/04 08:09:05;;;;;;;6.20;4.13;;;17.60;99.90;;;;;;4862472;29;20452;-83
2023/09/04 08:11:30;;;;;;;8.13;4.47;;;17.70;99.90;;;;;;4862467;29;20263;-82
2023/09/04 08:13:56;;;;;;;12.83;5.30;;;17.80;99.90;;;;;;4861892;29;20582;-83
2023/09/04 08:16:22;;;;;;;6.73;5.03;;;17.90;99.90;;;;;;4862255;29;20185;-83
2023/09/04 08:18:47;;;;;;;10.97;4.70;;;18.00;99.90;;;;;;4862743;29;20202;-83
2023/09/04 08:21:13;;;;;;;5.87;4.43;;;18.20;99.90;;;;;;4862004;29;20204;-83
2023/09/04 08:23:39;;;;;;;7.50;4.37;;;18.20;99.90;;;;;;4862724;29;20241;-84
2023/09/04 08:26:06;;;;;;;4.90;4.40;;;18.50;99.90;;;;;;4862005;29;20180;-83
2023/09/04 08:28:31;;;;;;;6.20;4.80;;;18.70;99.90;;;;;;4861731;29;20677;-83
2023/09/04 08:30:57;;;;;;;4.60;4.20;;;19.10;99.90;;;;;;4861936;29;20425;-84
2023/09/04 08:33:23;;;;;;;8.53;3.40;;;19.60;99.90;;;;;;4861678;29;20216;-84
2023/09/04 08:35:48;;;;;;;4.87;2.90;;;19.90;99.90;;;;;;4862157;29;20181;-84
2023/09/04 08:38:14;;;;;;;4.33;3.10;;;20.40;99.90;;;;;;4861493;29;20291;-84
2023/09/04 08:40:41;;;;;;;5.93;3.50;;;21.00;99.90;;;;;;4860346;29;20195;-84
2023/09/04 08:43:08;;;;;;;5.80;4.10;;;21.30;99.90;;;;;;4861976;29;20208;-85
2023/09/04 08:45:39;;;;;;;5.70;3.60;;;21.50;99.90;;;;;;4861788;29;20425;-89
2023/09/04 08:48:06;;;;;;;4.43;3.27;;;21.60;99.90;;;;;;4861540;29;20480;-87
2023/09/04 08:50:32;;;;;;;5.37;3.37;;;21.40;99.90;;;;;;4863006;29;20429;-91
2023/09/04 08:52:58;;;;;;;4.90;3.40;;;21.70;99.90;;;;;;4865877;29;20556;-91
2023/09/04 08:55:24;;;;;;;3.83;3.23;;;22.00;99.90;;;;;;4862428;29;20419;-92
2023/09/04 08:57:50;;;;;;;5.10;3.90;;;22.00;99.90;;;;;;4861305;29;20469;-88
2023/09/04 09:00:16;;;;;;;8.40;3.97;;;22.10;99.90;;;;;;4863901;29;20556;-90
2023/09/04 09:02:43;;;;;;;5.50;4.10;;;22.50;99.90;;;;;;4862467;29;20188;-92
2023/09/04 09:05:12;;;;;;;4.77;4.27;;;22.80;99.90;;;;;;4862117;29;20898;-88
2023/09/04 09:07:40;;;;;;;6.83;4.10;;;22.70;99.90;;;;;;4861505;29;20413;-92
2023/09/04 09:10:09;;;;;;;4.83;3.87;;;22.90;99.90;;;;;;4862226;29;20420;-93
2023/09/04 09:12:35;;;;;;;5.47;3.87;;;23.50;99.90;;;;;;4861839;29;20472;-92
2023/09/04 09:15:01;;;;;;;5.23;3.40;;;23.70;99.90;;;;;;4862327;29;20424;-92
2023/09/04 09:17:27;;;;;;;5.27;3.33;;;24.20;99.90;;;;;;4863712;29;20267;-95
2023/09/04 09:19:53;;;;;;;6.53;3.67;;;23.80;99.90;;;;;;4861464;29;20429;-89
2023/09/04 09:22:20;;;;;;;7.60;2.93;;;24.20;99.90;;;;;;4843149;29;20430;-89
2023/09/04 09:24:50;;;;;;;7.17;3.50;;;24.40;99.90;;;;;;4852650;29;20252;-91
2023/09/04 09:27:36;;;;;;;8.90;3.63;;;24.40;99.90;;;;;;4864695;29;20421;-92
2023/09/04 09:30:02;;;;;;;5.07;3.20;;;24.50;99.90;;;;;;4864129;29;20468;-91
2023/09/04 09:32:31;;;;;;;11.50;3.17;;;24.40;99.90;;;;;;4864042;29;20666;-88
2023/09/04 09:34:59;;;;;;;4.80;2.90;;;25.10;99.90;;;;;;4864177;29;20424;-89
2023/09/04 09:37:29;;;;;;;3.90;2.87;;;25.20;99.90;;;;;;4864636;29;20409;-90
2023/09/04 09:39:54;;;;;;;4.10;2.90;;;25.40;99.90;;;;;;4864197;29;20811;-87
2023/09/04 09:42:20;;;;;;;5.50;2.73;;;25.10;99.90;;;;;;4845855;29;20445;-89
2023/09/04 09:44:46;;;;;;;3.77;2.87;;;25.40;99.90;;;;;;4845844;29;20611;-89
2023/09/04 09:47:13;;;;;;;3.40;2.57;;;25.10;99.90;;;;;;4845307;29;20195;-91
2023/09/04 09:49:40;;;;;;;4.30;2.53;;;25.30;99.90;;;;;;4845523;29;20188;-89
2023/09/04 09:52:07;;;;;;;2.50;2.30;;;26.00;99.90;;;;;;4845689;29;20954;-90
2023/09/04 09:54:44;;;;;;;3.83;2.63;;;26.60;99.90;;;;;;4845255;29;20425;-90
2023/09/04 09:57:12;;;;;;;3.27;2.30;;;26.20;99.90;;;;;;4845497;29;20421;-90
2023/09/04 09:59:42;;;;;;;4.20;3.17;;;26.60;99.90;;;;;;4845331;29;20420;-91
2023/09/04 10:02:08;;;;;;;5.53;2.40;;;26.90;99.90;;;;;;4845559;29;20425;-89
2023/09/04 10:04:35;;;;;;;5.20;2.60;;;26.80;99.90;;;;;;4845096;29;20432;-91
2023/09/04 10:07:04;;;;;;;4.10;2.70;;;26.90;99.90;;;;;;4845429;29;20185;-88
2023/09/04 10:09:40;;;;;;;4.57;2.60;;;27.00;99.90;;;;;;4845010;29;20822;-90
2023/09/04 10:12:27;;;;;;;3.17;2.40;;;27.30;99.90;;;;;;4845213;29;20857;-90
2023/09/04 10:14:58;;;;;;;3.53;3.00;;;26.80;99.90;;;;;;4845353;29;20410;-90
2023/09/04 10:17:46;;;;;;;3.80;2.70;;;27.10;99.90;;;;;;4844669;29;20430;-90
2023/09/04 10:20:14;;;;;;;3.63;2.80;;;26.80;99.90;;;;;;4845049;29;20467;-89
2023/09/04 10:22:55;;;;;;;2.80;2.60;;;27.00;99.90;;;;;;4863367;29;20468;-88
2023/09/04 10:25:52;;;;;;;2.90;2.13;;;27.50;99.90;;;;;;4863226;29;20495;-91
2023/09/04 10:28:39;;;;;;;3.83;2.50;;;27.30;99.90;;;;;;4863247;29;20480;-89
2023/09/04 10:31:05;;;;;;;2.30;2.10;;;27.30;99.90;;;;;;4863670;29;20831;-91
2023/09/04 10:33:31;;;;;;;2.67;2.30;;;27.80;99.90;;;;;;4863410;29;20953;-90
2023/09/04 10:35:58;;;;;;;3.53;2.57;;;28.10;99.90;;;;;;4863137;29;20424;-89
2023/09/04 10:38:25;;;;;;;3.20;2.50;;;28.20;99.90;;;;;;4863153;29;20216;-89
2023/09/04 10:40:51;;;;;;;5.50;2.50;;;28.20;99.90;;;;;;4857802;29;20433;-89
2023/09/04 10:43:17;;;;;;;3.33;2.60;;;27.90;99.90;;;;;;4866690;24;20921;-90
2023/09/04 10:46:07;;;;;;;3.43;2.27;;;28.10;99.90;;;;;;4872152;29;20437;-89
2023/09/04 10:48:42;;;;;;;2.83;2.07;;;27.80;99.90;;;;;;4865756;29;20848;-89
2023/09/04 10:51:37;;;;;;;6.27;2.67;;;28.00;99.90;;;;;;4858624;29;20425;-90
2023/09/04 10:54:18;;;;;;;2.33;2.10;;;28.00;99.90;;;;;;4845037;29;20457;-88
2023/09/04 10:57:07;;;;;;;3.13;2.30;;;28.10;99.90;;;;;;4863483;29;20444;-89
2023/09/04 10:59:55;;;;;;;2.67;2.47;;;27.80;99.90;;;;;;4863520;29;20425;-90
2023/09/04 11:02:28;;;;;;;2.90;2.60;;;27.50;99.90;;;;;;4864361;29;20475;-92
2023/09/04 11:04:54;;;;;;;2.60;2.40;;;27.70;99.90;;;;;;4919438;24;20508;-92
2023/09/04 11:07:19;;;;;;;4.00;2.90;;;27.80;99.90;;;;;;4863484;29;20546;-92
2023/09/04 11:09:46;;;;;;;3.00;2.23;;;28.10;99.90;;;;;;4861375;29;20897;-91
2023/09/04 11:12:18;;;;;;;3.60;2.10;;;28.40;99.90;;;;;;4847410;29;20224;-90
2023/09/04 11:14:45;;;;;;;3.10;2.30;;;28.30;99.90;;;;;;4855390;29;20441;-87
2023/09/04 11:17:14;;;;;;;3.30;2.60;;;28.50;99.90;;;;;;4864671;29;20502;-92
2023/09/04 11:19:39;;;;;;;3.43;2.70;;;28.60;99.90;;;;;;4862622;29;20417;-92
2023/09/04 11:22:05;;;;;;;3.10;2.47;;;28.50;99.90;;;;;;4845120;29;20434;-89
2023/09/04 11:24:30;;;;;;;2.40;2.13;;;28.40;99.90;;;;;;4843642;29;20694;-86
2023/09/04 11:26:56;;;;;;;4.03;2.03;;;28.50;99.90;;;;;;4843835;29;20638;-87
2023/09/04 11:29:22;;;;;;;2.63;2.43;;;29.10;99.90;;;;;;4843366;29;20271;-88
2023/09/04 11:31:47;;;;;;;2.80;2.20;;;29.40;99.90;;;;;;4857594;29;20195;-87
2023/09/04 11:34:21;;;;;;;2.90;2.70;;;29.60;99.90;;;;;;4861934;29;20199;-86
2023/09/04 11:36:47;;;;;;;5.87;2.70;;;29.90;99.90;;;;;;4861955;29;20194;-88
2023/09/04 11:39:13;;;;;;;2.10;1.90;;;30.00;99.90;;;;;;4861850;29;20424;-87
2023/09/04 11:41:39;;;;;;;4.27;2.20;;;30.20;99.90;;;;;;4861300;29;20433;-88
2023/09/04 11:44:06;;;;;;;5.37;2.57;;;30.30;99.90;;;;;;4861654;29;20610;-86
2023/09/04 11:46:35;;;;;;;3.30;2.30;;;30.90;99.90;;;;;;4862153;29;20553;-89
2023/09/04 11:49:03;;;;;;;2.43;2.20;;;30.50;99.90;;;;;;4859889;29;20425;-89
2023/09/04 11:51:31;;;;;;;2.43;2.23;;;30.90;99.90;;;;;;4850074;29;20469;-86
2023/09/04 11:53:56;;;;;;;2.57;2.07;;;31.20;99.90;;;;;;4842998;29;20477;-87
2023/09/04 11:56:22;;;;;;;2.77;2.53;;;31.40;99.90;;;;;;4842822;29;20985;-90
2023/09/04 11:58:48;;;;;;;2.40;2.20;;;31.60;99.90;;;;;;4843406;29;20188;-87
2023/09/04 12:01:13;;;;;;;3.30;2.00;;;31.30;99.90;;;;;;4841933;29;20539;-87
2023/09/04 12:03:39;;;;;;;2.10;2.00;;;31.60;99.90;;;;;;4860845;29;20196;-89
2023/09/04 12:06:05;;;;;;;3.50;2.17;;;31.80;99.90;;;;;;4861352;29;20250;-88
2023/09/04 12:08:30;;;;;;;3.03;2.03;;;31.80;99.90;;;;;;4861024;29;20180;-89
2023/09/04 12:10:56;;;;;;;5.20;2.37;;;31.80;99.90;;;;;;4860923;29;20196;-86
2023/09/04 12:13:23;;;;;;;2.10;1.90;;;32.00;99.90;;;;;;4861296;29;20208;-89
2023/09/04 12:15:49;;;;;;;3.57;2.60;;;31.90;99.90;;;;;;4861287;29;20509;-89
2023/09/04 12:18:15;;;;;;;2.60;2.10;;;31.60;99.90;;;;;;4861529;29;20417;-88
2023/09/04 12:20:42;;;;;;;2.67;2.10;;;31.70;99.90;;;;;;4856935;29;20185;-92
2023/09/04 12:23:08;;;;;;;2.13;1.93;;;32.50;99.90;;;;;;4849834;29;20438;-88
2023/09/04 12:25:42;;;;;;;2.30;2.10;;;32.70;99.90;;;;;;4842753;29;20461;-88
2023/09/04 12:28:09;;;;;;;2.53;2.10;;;32.60;99.90;;;;;;4843017;29;20418;-88
2023/09/04 12:30:45;;;;;;;5.10;1.83;;;32.70;99.90;;;;;;4845209;29;20452;-87
2023/09/04 12:33:12;;;;;;;2.47;2.00;;;32.90;99.90;;;;;;4848484;29;20469;-87
2023/09/04 12:35:39;;;;;;;2.57;1.67;;;33.00;99.70;;;;;;4842626;29;20462;-88
2023/09/04 12:38:05;;;;;;;2.50;2.07;;;33.10;97.20;;;;;;4843171;29;20487;-88